Time;durP1;ratioP1;P1;durP2;ratioP2;P2;SDS_P1;SDS_P2;PMS_P1;PMS_P2;Temp;Humidity;BMP_temperature;BMP_pressure;BME280_temperature;BME280_humidity;BME280_pressure;Samples;Min_cycle;Max_cycle;Signal;HPM_P1;HPM_P2
2021/05/15 00:01:20;;;;;;;6.87;1.90;;;;;;;23.98;42.48;99079.94;4485146;32;33970;-60
2021/05/15 00:03:47;;;;;;;6.78;1.83;;;;;;;23.97;42.49;99090.00;4485067;32;33799;-60
2021/05/15 00:06:13;;;;;;;6.95;1.50;;;;;;;23.98;42.50;99086.19;4485196;32;34232;-60
2021/05/15 00:08:40;;;;;;;5.78;1.87;;;;;;;23.97;42.53;99087.28;4485037;32;33701;-60
2021/05/15 00:11:06;;;;;;;6.00;1.70;;;;;;;23.98;42.50;99077.22;4485213;32;34420;-60
2021/05/15 00:13:33;;;;;;;9.18;1.70;;;;;;;23.97;42.52;99081.84;4485113;32;33972;-60
2021/05/15 00:15:59;;;;;;;7.40;1.45;;;;;;;23.97;42.54;99084.56;4484500;32;34943;-61
2021/05/15 00:18:45;;;;;;;10.48;1.75;;;;;;;23.97;42.51;99081.84;4483343;32;35020;-60
2021/05/15 00:21:11;;;;;;;5.57;1.50;;;;;;;23.96;42.50;99082.88;4484045;32;32681;-61
2021/05/15 00:23:38;;;;;;;7.85;1.52;;;;;;;23.97;42.54;99080.97;4485065;32;35544;-60
2021/05/15 00:26:12;;;;;;;6.78;1.90;;;;;;;23.97;42.56;99081.84;4485150;32;34998;-61
2021/05/15 00:28:38;;;;;;;9.05;1.70;;;;;;;23.96;42.57;99079.34;4485049;32;33887;-61
2021/05/15 00:31:05;;;;;;;6.85;1.48;;;;;;;23.96;42.49;99082.88;4485095;32;33336;-61
2021/05/15 00:33:31;;;;;;;8.02;1.55;;;;;;;23.95;42.69;99075.78;4484986;32;34090;-61
2021/05/15 00:35:58;;;;;;;7.70;1.87;;;;;;;23.96;42.65;99074.72;4483144;32;33866;-61
2021/05/15 00:38:24;;;;;;;6.50;1.60;;;;;;;23.96;42.62;99073.88;4484987;32;34536;-60
2021/05/15 00:40:51;;;;;;;5.97;1.55;;;;;;;23.96;42.58;99073.88;4485396;32;34055;-61
2021/05/15 00:43:18;;;;;;;5.65;1.95;;;;;;;23.95;42.56;99072.25;4485128;32;33967;-60
2021/05/15 00:45:45;;;;;;;5.22;1.30;;;;;;;23.95;42.61;99070.34;4485049;32;34544;-60
2021/05/15 00:48:12;;;;;;;9.52;1.60;;;;;;;23.95;42.55;99075.78;4485190;32;33809;-60
2021/05/15 00:50:38;;;;;;;7.68;1.50;;;;;;;23.96;42.58;99082.06;4484913;32;33081;-61
2021/05/15 00:53:05;;;;;;;3.78;1.17;;;;;;;23.95;42.60;99077.69;4485030;32;34559;-61
2021/05/15 00:55:33;;;;;;;3.78;1.17;;;;;;;23.95;42.56;99085.87;4484832;32;33853;-61
2021/05/15 00:57:59;;;;;;;7.82;1.40;;;;;;;23.95;42.58;99083.12;4484892;32;35063;-61
2021/05/15 01:00:26;;;;;;;7.25;1.42;;;;;;;23.95;42.59;99080.41;4485225;32;34263;-61
2021/05/15 01:02:53;;;;;;;6.22;2.03;;;;;;;23.93;42.57;99086.13;4484999;32;33791;-61
2021/05/15 01:05:19;;;;;;;3.92;1.50;;;;;;;23.95;42.56;99085.87;4485352;32;33871;-61
2021/05/15 01:07:47;;;;;;;4.62;1.20;;;;;;;23.94;42.75;99085.03;4484806;32;33966;-61
2021/05/15 01:10:13;;;;;;;6.07;1.30;;;;;;;23.94;42.83;99087.78;4484021;32;33495;-59
2021/05/15 01:12:51;;;;;;;6.18;1.62;;;;;;;23.93;42.79;99084.22;4484684;32;33283;-61
2021/05/15 01:15:19;;;;;;;6.85;1.65;;;;;;;23.95;42.77;99089.41;4484736;32;33843;-61
2021/05/15 01:17:55;;;;;;;5.50;1.27;;;;;;;23.93;42.72;99092.41;4484779;32;33815;-61
2021/05/15 01:20:22;;;;;;;5.12;1.45;;;;;;;23.94;42.75;99079.59;4484795;32;33424;-61
2021/05/15 01:22:49;;;;;;;9.55;1.65;;;;;;;23.92;42.67;99082.56;4484852;32;34575;-62
2021/05/15 01:25:16;;;;;;;5.43;1.33;;;;;;;23.92;42.67;99081.72;4484891;32;33867;-61
2021/05/15 01:27:42;;;;;;;5.43;1.30;;;;;;;23.92;42.71;99084.44;4484573;32;33730;-61
2021/05/15 01:30:10;;;;;;;4.03;1.25;;;;;;;23.92;42.66;99081.72;4484564;32;33526;-61
2021/05/15 01:32:37;;;;;;;5.78;1.52;;;;;;;23.91;42.65;99086.34;4484437;32;34684;-60
2021/05/15 01:35:04;;;;;;;5.07;1.27;;;;;;;23.91;42.64;99077.34;4483099;32;34241;-61
2021/05/15 01:37:31;;;;;;;5.93;1.48;;;;;;;23.91;42.62;99069.19;4484678;32;33458;-61
2021/05/15 01:39:57;;;;;;;6.03;1.40;;;;;;;23.91;42.62;99075.44;4484661;32;34076;-61
2021/05/15 01:42:24;;;;;;;4.60;1.33;;;;;;;23.92;42.63;99079.00;4484458;32;33063;-60
2021/05/15 01:44:50;;;;;;;4.43;1.30;;;;;;;23.93;42.62;99075.22;4484701;32;33989;-60
2021/05/15 01:47:17;;;;;;;4.22;1.30;;;;;;;23.92;42.62;99077.13;4484503;32;34021;-61
2021/05/15 01:49:46;;;;;;;4.47;1.25;;;;;;;23.92;42.64;99070.81;4484778;32;33623;-61
2021/05/15 01:52:13;;;;;;;5.60;1.55;;;;;;;23.93;42.53;99069.78;4484504;32;33388;-61
2021/05/15 01:54:40;;;;;;;4.62;1.27;;;;;;;23.92;42.52;99068.94;4484522;32;35157;-61
2021/05/15 01:57:06;;;;;;;6.87;1.58;;;;;;;23.93;42.48;99075.22;4484321;32;33627;-61
2021/05/15 01:59:33;;;;;;;4.15;1.50;;;;;;;23.93;42.53;99067.06;4484447;32;33245;-61
2021/05/15 02:02:00;;;;;;;6.22;1.17;;;;;;;23.94;42.41;99071.41;4484325;32;33752;-61
2021/05/15 02:04:26;;;;;;;5.43;1.60;;;;;;;23.93;42.51;99072.50;4484678;32;34004;-61
2021/05/15 02:06:56;;;;;;;5.45;1.30;;;;;;;23.92;42.68;99070.81;4484776;32;34545;-61
2021/05/15 02:09:22;;;;;;;4.47;1.30;;;;;;;23.92;42.75;99068.09;4484301;32;33347;-61
2021/05/15 02:11:49;;;;;;;7.78;1.35;;;;;;;23.93;42.75;99061.59;4484184;32;33920;-60
2021/05/15 02:14:15;;;;;;;4.45;1.20;;;;;;;23.92;42.71;99060.78;4484481;32;34804;-61
2021/05/15 02:16:42;;;;;;;5.00;1.42;;;;;;;23.92;42.73;99059.94;4484440;32;33693;-61
2021/05/15 02:19:09;;;;;;;7.70;1.30;;;;;;;23.91;42.72;99059.09;4484217;32;34399;-61
2021/05/15 02:21:36;;;;;;;4.87;1.40;;;;;;;23.90;42.74;99059.38;4484347;32;33979;-61
2021/05/15 02:24:03;;;;;;;3.67;1.48;;;;;;;23.90;42.81;99062.09;4484450;32;33959;-61
2021/05/15 02:26:29;;;;;;;5.10;1.45;;;;;;;23.91;42.79;99056.37;4484284;32;34577;-61
2021/05/15 02:28:55;;;;;;;4.03;1.15;;;;;;;23.91;42.74;99050.09;4484503;32;32571;-61
2021/05/15 02:31:22;;;;;;;2.95;0.90;;;;;;;23.90;42.72;99053.91;4484205;32;33925;-60
2021/05/15 02:33:48;;;;;;;5.78;1.40;;;;;;;23.90;42.76;99053.91;4484112;32;33213;-61
2021/05/15 02:36:15;;;;;;;4.93;1.33;;;;;;;23.89;42.74;99053.09;4483860;32;33931;-61
2021/05/15 02:38:41;;;;;;;2.95;1.05;;;;;;;23.89;42.79;99049.53;4484289;32;33203;-61
2021/05/15 02:41:08;;;;;;;5.72;1.17;;;;;;;23.89;42.75;99055.00;4484461;32;34452;-60
2021/05/15 02:43:34;;;;;;;5.62;1.20;;;;;;;23.89;42.65;99055.81;4484141;32;33904;-61
2021/05/15 02:46:01;;;;;;;5.80;1.27;;;;;;;23.88;42.69;99065.06;4483991;32;33725;-60
2021/05/15 02:48:27;;;;;;;6.75;1.55;;;;;;;23.89;42.72;99065.88;4484315;32;33433;-61
2021/05/15 02:50:53;;;;;;;4.70;1.20;;;;;;;23.89;42.76;99071.34;4484191;32;33731;-61
2021/05/15 02:53:20;;;;;;;3.95;1.00;;;;;;;23.88;42.75;99073.25;4484037;32;33834;-60
2021/05/15 02:55:47;;;;;;;4.18;1.33;;;;;;;23.88;42.71;99070.50;4484371;32;33425;-60
2021/05/15 02:58:16;;;;;;;5.90;1.27;;;;;;;23.88;42.71;99073.25;4483947;32;33419;-61
2021/05/15 03:00:43;;;;;;;6.53;1.45;;;;;;;23.89;42.66;99074.06;4483975;32;33810;-61
2021/05/15 03:03:09;;;;;;;5.05;1.40;;;;;;;23.89;42.62;99068.63;4483917;32;34665;-61
2021/05/15 03:05:36;;;;;;;4.12;1.00;;;;;;;23.88;42.71;99070.50;4483822;32;34505;-61
2021/05/15 03:08:03;;;;;;;5.50;1.20;;;;;;;23.88;42.72;99073.25;4483800;32;33219;-61
2021/05/15 03:10:29;;;;;;;4.87;1.12;;;;;;;23.87;42.83;99074.28;4483903;32;33939;-61
2021/05/15 03:12:56;;;;;;;4.15;1.12;;;;;;;23.86;42.75;99072.66;4483764;32;33154;-61
2021/05/15 03:15:24;;;;;;;6.32;1.30;;;;;;;23.88;42.83;99072.41;4483929;32;35398;-61
2021/05/15 03:17:52;;;;;;;4.65;1.30;;;;;;;23.86;42.82;99072.66;4484185;32;34355;-61
2021/05/15 03:20:20;;;;;;;9.40;1.25;;;;;;;23.87;42.75;99070.75;4483819;32;33940;-61
2021/05/15 03:22:47;;;;;;;3.00;0.88;;;;;;;23.87;42.89;99079.75;4484168;32;34633;-61
2021/05/15 03:25:14;;;;;;;6.00;1.27;;;;;;;23.86;42.90;99078.09;4483724;32;34019;-61
2021/05/15 03:27:40;;;;;;;4.03;1.30;;;;;;;23.87;42.88;99078.91;4483667;32;33547;-60
2021/05/15 03:30:08;;;;;;;3.83;1.27;;;;;;;23.85;42.84;99081.91;4478450;32;34535;-60
2021/05/15 03:32:35;;;;;;;5.20;1.40;;;;;;;23.85;42.81;99079.16;4467696;32;34815;-61
2021/05/15 03:35:02;;;;;;;3.85;1.30;;;;;;;23.87;42.85;99081.63;4467750;32;33781;-61
2021/05/15 03:37:29;;;;;;;5.05;1.30;;;;;;;23.86;42.83;99078.09;4468134;32;34048;-61
2021/05/15 03:39:55;;;;;;;4.20;1.30;;;;;;;23.86;42.86;99077.28;4467961;32;33063;-61
2021/05/15 03:42:21;;;;;;;7.10;1.30;;;;;;;23.86;42.84;99082.72;4467819;32;33903;-61
2021/05/15 03:44:48;;;;;;;5.82;1.77;;;;;;;23.89;42.69;99083.06;4467917;32;34838;-61
2021/05/15 03:47:14;;;;;;;6.20;1.40;;;;;;;23.86;42.72;99082.72;4467935;32;33327;-61
2021/05/15 03:49:41;;;;;;;3.67;1.20;;;;;;;23.86;42.86;99082.72;4467500;32;33518;-61
2021/05/15 03:52:07;;;;;;;4.10;1.10;;;;;;;23.85;42.95;99081.06;4467757;32;34666;-61
2021/05/15 03:54:35;;;;;;;6.05;1.10;;;;;;;23.85;42.93;99081.06;4467676;32;33028;-61
2021/05/15 03:57:02;;;;;;;5.72;1.20;;;;;;;23.85;42.92;99067.44;4467481;32;33262;-62
2021/05/15 03:59:28;;;;;;;5.93;1.37;;;;;;;23.85;42.93;99072.91;4467706;32;33871;-61
2021/05/15 04:01:55;;;;;;;3.50;1.10;;;;;;;23.85;42.91;99078.34;4467759;32;33907;-62
2021/05/15 04:04:21;;;;;;;11.07;1.37;;;;;;;23.84;42.82;99080.25;4467626;32;33888;-61
2021/05/15 04:06:48;;;;;;;5.07;1.40;;;;;;;23.85;42.81;99083.78;4467599;32;33381;-61
2021/05/15 04:09:14;;;;;;;3.95;1.10;;;;;;;23.85;42.76;99086.53;4467717;32;34487;-61
2021/05/15 04:11:42;;;;;;;4.97;1.15;;;;;;;23.84;42.73;99093.06;4467437;32;33808;-61
2021/05/15 04:19:26;;;;;;;8.20;1.33;;;;;;;23.84;42.79;99090.31;4467345;32;34479;-61
2021/05/15 04:21:54;;;;;;;3.87;1.12;;;;;;;23.85;42.85;99097.41;4467377;32;33951;-61
2021/05/15 04:24:24;;;;;;;5.53;1.42;;;;;;;23.83;42.87;99100.41;4467188;32;33845;-61
2021/05/15 04:26:56;;;;;;;4.93;1.30;;;;;;;23.84;42.92;99101.22;4467318;32;33910;-61
2021/05/15 04:29:23;;;;;;;9.30;1.37;;;;;;;23.84;42.88;99104.78;4467757;32;34782;-61
2021/05/15 04:31:50;;;;;;;4.50;1.17;;;;;;;23.83;42.88;99097.69;4482798;32;33751;-61
2021/05/15 04:34:17;;;;;;;5.07;1.05;;;;;;;23.84;42.88;99095.78;4482943;32;34366;-61
2021/05/15 04:36:44;;;;;;;7.40;1.50;;;;;;;23.84;42.93;99096.59;4482795;32;32903;-61
2021/05/15 04:39:10;;;;;;;6.35;1.00;;;;;;;23.85;42.84;99097.41;4482631;32;33748;-61
2021/05/15 04:41:37;;;;;;;5.62;1.10;;;;;;;23.83;42.85;99089.50;4482776;32;34932;-61
2021/05/15 04:44:03;;;;;;;6.47;1.42;;;;;;;23.84;42.84;99098.50;4482617;32;33779;-61
2021/05/15 04:46:30;;;;;;;2.83;0.93;;;;;;;23.84;42.83;99085.69;4483254;32;34169;-61
2021/05/15 04:48:57;;;;;;;4.97;1.17;;;;;;;23.84;42.84;99093.87;4484917;32;33935;-61
2021/05/15 04:51:24;;;;;;;4.28;1.27;;;;;;;23.84;42.84;99102.03;4485018;32;33966;-61
2021/05/15 04:53:51;;;;;;;2.60;1.00;;;;;;;23.84;42.81;99104.78;4484763;32;33805;-61
2021/05/15 04:56:17;;;;;;;4.85;1.12;;;;;;;23.83;42.82;99099.56;4485132;32;33411;-61
2021/05/15 04:58:44;;;;;;;4.47;1.10;;;;;;;23.84;42.86;99098.50;4484906;32;34526;-61
2021/05/15 05:01:11;;;;;;;3.83;1.12;;;;;;;23.84;42.88;99090.31;4485089;32;34906;-61
2021/05/15 05:03:37;;;;;;;5.82;1.30;;;;;;;23.83;42.94;99094.13;4484862;32;33830;-61
2021/05/15 05:06:04;;;;;;;7.12;1.30;;;;;;;23.83;42.93;99094.94;4484534;32;34281;-61
2021/05/15 05:08:30;;;;;;;4.97;1.40;;;;;;;23.84;42.89;99090.31;4477636;32;34855;-61
2021/05/15 05:10:57;;;;;;;4.03;0.98;;;;;;;23.82;42.82;99096.00;4469091;32;33196;-61
2021/05/15 05:13:23;;;;;;;3.25;0.90;;;;;;;23.83;42.84;99094.13;4478407;32;33888;-61
2021/05/15 05:15:51;;;;;;;3.12;1.58;;;;;;;23.83;42.79;99102.31;4485097;32;32968;-61
2021/05/15 05:18:17;;;;;;;5.45;1.00;;;;;;;23.83;42.71;99102.31;4485005;32;33735;-61
2021/05/15 05:20:44;;;;;;;7.12;1.20;;;;;;;23.85;42.74;99105.59;4482684;32;33846;-61
2021/05/15 05:23:10;;;;;;;4.87;0.90;;;;;;;23.84;42.92;99107.50;4477287;32;33449;-60
2021/05/15 05:25:37;;;;;;;4.80;1.10;;;;;;;23.83;42.95;99111.28;4474894;32;33049;-60
2021/05/15 05:28:03;;;;;;;5.75;0.98;;;;;;;23.83;42.92;99114.03;4472859;32;34643;-60
2021/05/15 05:30:30;;;;;;;4.97;1.10;;;;;;;23.82;42.95;99114.25;4483589;32;34777;-63
2021/05/15 05:32:56;;;;;;;2.50;0.98;;;;;;;23.83;42.90;99111.28;4482731;32;34055;-60
2021/05/15 05:35:23;;;;;;;5.65;1.20;;;;;;;23.84;42.98;99112.13;4484568;32;33884;-60
2021/05/15 05:37:49;;;;;;;4.70;1.10;;;;;;;23.84;42.84;99123.03;4484583;32;34009;-60
2021/05/15 05:40:16;;;;;;;5.05;1.35;;;;;;;23.85;42.82;99116.50;4484360;32;33482;-60
2021/05/15 05:42:43;;;;;;;3.62;1.10;;;;;;;23.84;42.83;99117.56;4483885;32;34514;-60
2021/05/15 05:45:12;;;;;;;8.13;1.40;;;;;;;23.85;42.74;99119.22;4484555;32;34331;-60
2021/05/15 05:47:38;;;;;;;10.57;1.58;;;;;;;23.85;42.82;99121.94;4468927;32;34227;-60
2021/05/15 05:50:06;;;;;;;4.43;1.15;;;;;;;23.86;42.73;99116.22;4468763;32;33802;-60
2021/05/15 05:52:32;;;;;;;4.87;1.10;;;;;;;23.86;42.82;99127.13;4468675;32;34655;-60
2021/05/15 05:54:58;;;;;;;5.70;1.02;;;;;;;23.85;42.88;99127.38;4468763;32;33586;-60
2021/05/15 05:57:25;;;;;;;3.83;1.10;;;;;;;23.84;42.92;99131.19;4468276;32;33882;-60
2021/05/15 05:59:51;;;;;;;6.85;1.60;;;;;;;23.85;42.88;99125.50;4468689;32;34752;-60
2021/05/15 06:02:18;;;;;;;3.37;1.20;;;;;;;23.84;42.89;99118.38;4474909;32;33001;-61
2021/05/15 06:04:45;;;;;;;6.32;1.42;;;;;;;23.86;42.88;99131.75;4478635;32;34842;-61
2021/05/15 06:07:13;;;;;;;5.93;1.15;;;;;;;23.85;42.88;99125.50;4484278;32;33803;-60
2021/05/15 06:09:40;;;;;;;4.18;1.10;;;;;;;23.87;42.79;99123.34;4468445;32;33775;-61
2021/05/15 06:12:07;;;;;;;6.05;1.60;;;;;;;23.88;42.72;99127.72;4468681;32;33518;-61
2021/05/15 06:14:35;;;;;;;5.12;1.15;;;;;;;23.89;42.80;99131.28;4468527;32;34167;-61
2021/05/15 06:17:02;;;;;;;4.28;1.10;;;;;;;23.90;42.74;99132.94;4468434;32;33928;-60
2021/05/15 06:19:29;;;;;;;4.68;1.12;;;;;;;23.89;42.72;99131.28;4468809;32;33931;-60
2021/05/15 06:21:56;;;;;;;4.15;1.17;;;;;;;23.90;42.68;99130.19;4483315;32;34647;-61
2021/05/15 06:24:22;;;;;;;5.30;1.60;;;;;;;23.91;42.74;99131.84;4468628;32;33967;-61
2021/05/15 06:26:49;;;;;;;3.60;0.88;;;;;;;23.90;42.83;99132.94;4468590;32;33768;-61
2021/05/15 06:29:15;;;;;;;5.90;1.42;;;;;;;23.89;42.87;99129.38;4468402;32;34127;-61
2021/05/15 06:31:41;;;;;;;4.78;1.05;;;;;;;23.89;42.86;99128.56;4468610;32;34506;-60
2021/05/15 06:34:08;;;;;;;5.15;1.20;;;;;;;23.89;42.88;99125.84;4468419;32;33036;-61
2021/05/15 06:36:39;;;;;;;3.33;1.20;;;;;;;23.89;42.89;99125.84;4468520;32;33836;-60
2021/05/15 06:39:06;;;;;;;2.35;1.00;;;;;;;23.89;42.83;99120.38;4468324;32;34570;-61
2021/05/15 06:41:33;;;;;;;3.65;1.20;;;;;;;23.88;42.89;99121.47;4468247;32;34001;-60
2021/05/15 06:43:59;;;;;;;5.25;1.12;;;;;;;23.89;42.86;99117.66;4468721;32;34274;-60
2021/05/15 06:46:26;;;;;;;4.10;1.40;;;;;;;23.90;42.87;99119.31;4468193;32;34669;-60
2021/05/15 06:48:53;;;;;;;3.65;1.25;;;;;;;23.92;42.76;99125.31;4468192;32;33799;-60
2021/05/15 06:51:19;;;;;;;2.67;1.00;;;;;;;23.92;42.78;99120.72;4468504;32;33825;-62
2021/05/15 06:53:45;;;;;;;8.52;1.58;;;;;;;23.93;42.80;99113.38;4468304;32;34112;-62
2021/05/15 06:56:12;;;;;;;8.63;1.30;;;;;;;23.91;42.53;99119.03;4469965;32;33686;-64
2021/05/15 06:58:41;;;;;;;6.12;1.50;;;;;;;23.91;42.25;99121.78;4484258;32;33926;-62
2021/05/15 07:01:08;;;;;;;6.00;1.37;;;;;;;23.89;42.14;99123.09;4483669;32;34506;-61
2021/05/15 07:03:35;;;;;;;18.98;2.00;;;;;;;23.87;42.02;99114.34;4484089;32;33374;-62
2021/05/15 07:06:04;;;;;;;11.07;1.60;;;;;;;23.88;41.85;99119.56;4478576;32;33556;-61
2021/05/15 07:08:30;;;;;;;5.97;1.48;;;;;;;23.85;41.46;99121.94;4466783;32;34586;-62
2021/05/15 07:10:57;;;;;;;9.38;1.55;;;;;;;23.83;41.55;99126.81;4468266;32;34548;-62
2021/05/15 07:13:23;;;;;;;8.38;1.60;;;;;;;23.84;41.61;99117.56;4468330;32;33416;-62
2021/05/15 07:15:50;;;;;;;13.40;1.70;;;;;;;23.83;41.52;99118.66;4468263;32;32979;-61
2021/05/15 07:18:19;;;;;;;12.63;2.17;;;;;;;23.81;41.21;99123.50;4472178;32;36663;-62
2021/05/15 07:20:45;;;;;;;10.13;1.67;;;;;;;23.81;41.45;99126.22;4484028;32;33934;-61
2021/05/15 07:23:12;;;;;;;5.25;1.40;;;;;;;23.82;41.38;99125.16;4484305;32;34428;-61
2021/05/15 07:25:39;;;;;;;9.40;1.73;;;;;;;23.84;41.37;99125.75;4484039;32;33775;-62
2021/05/15 07:28:05;;;;;;;5.10;1.70;;;;;;;23.82;41.17;99128.69;4483834;32;33544;-62
2021/05/15 07:30:31;;;;;;;5.82;1.70;;;;;;;23.82;41.24;99128.69;4483663;32;33406;-61
2021/05/15 07:32:58;;;;;;;9.73;1.87;;;;;;;23.83;41.21;99133.09;4483716;32;33581;-61
2021/05/15 07:35:24;;;;;;;4.93;1.33;;;;;;;23.83;41.11;99133.09;4483491;32;35218;-62
2021/05/15 07:37:51;;;;;;;7.93;1.67;;;;;;;23.82;40.94;99133.31;4483749;32;33216;-62
2021/05/15 07:40:18;;;;;;;4.65;1.65;;;;;;;23.80;40.95;99130.84;4483561;32;34545;-62
2021/05/15 07:42:45;;;;;;;6.12;1.40;;;;;;;23.81;40.91;99132.50;4482481;32;33272;-62
2021/05/15 07:45:12;;;;;;;4.55;1.33;;;;;;;23.81;41.11;99143.38;4483571;32;34710;-62
2021/05/15 07:47:39;;;;;;;3.45;1.17;;;;;;;23.81;41.11;99139.84;4483420;32;33815;-62
2021/05/15 07:50:06;;;;;;;3.97;1.35;;;;;;;23.80;40.65;99144.47;4483540;32;33767;-62
2021/05/15 07:52:33;;;;;;;7.15;1.48;;;;;;;23.80;40.86;99143.66;4483553;32;33350;-61
2021/05/15 07:54:59;;;;;;;7.12;1.60;;;;;;;23.80;41.05;99143.66;4477681;32;33797;-62
2021/05/15 07:57:26;;;;;;;5.72;1.50;;;;;;;23.80;41.17;99141.75;4467802;32;34754;-62
2021/05/15 07:59:52;;;;;;;10.75;2.12;;;;;;;23.80;41.07;99138.19;4467766;32;33172;-61
2021/05/15 08:02:21;;;;;;;6.30;1.40;;;;;;;23.81;40.99;99139.84;4471786;32;33437;-62
2021/05/15 08:04:48;;;;;;;5.93;1.12;;;;;;;23.80;41.02;99133.56;4472854;32;34826;-63
2021/05/15 08:07:14;;;;;;;5.47;1.40;;;;;;;23.81;40.96;99137.13;4467661;32;33778;-61
2021/05/15 08:09:41;;;;;;;5.68;1.48;;;;;;;23.81;40.99;99134.41;4483390;32;34471;-62
2021/05/15 08:12:08;;;;;;;4.78;1.50;;;;;;;23.80;41.06;99127.31;4483387;32;33383;-62
2021/05/15 08:14:34;;;;;;;7.65;1.75;;;;;;;23.80;41.05;99132.75;4483311;32;34371;-63
2021/05/15 08:17:00;;;;;;;9.43;1.65;;;;;;;23.74;40.75;99128.28;4483167;32;33987;-61
2021/05/15 08:19:27;;;;;;;4.18;1.60;;;;;;;23.77;40.79;99139.50;4483549;32;34086;-62
2021/05/15 08:21:54;;;;;;;5.85;1.67;;;;;;;23.76;40.85;99137.03;4469497;32;34465;-62
2021/05/15 08:24:20;;;;;;;6.53;1.62;;;;;;;23.76;40.84;99134.31;4469402;32;33816;-62
2021/05/15 08:26:48;;;;;;;6.15;1.52;;;;;;;23.77;40.68;99133.22;4469485;32;34947;-62
2021/05/15 08:29:15;;;;;;;5.60;1.62;;;;;;;23.74;40.70;99148.19;4468716;32;34387;-63
2021/05/15 08:31:41;;;;;;;5.97;1.52;;;;;;;23.77;40.28;99135.94;4469571;32;34172;-62
2021/05/15 08:34:09;;;;;;;5.25;1.37;;;;;;;23.75;40.44;99140.84;4469546;32;34411;-62
2021/05/15 08:36:35;;;;;;;4.95;1.50;;;;;;;23.72;40.53;99136.69;4469512;32;33419;-62
2021/05/15 08:39:05;;;;;;;5.32;1.50;;;;;;;23.73;40.58;99141.06;4469327;32;33740;-62
2021/05/15 08:41:32;;;;;;;4.57;1.45;;;;;;;23.76;40.79;99137.03;4469399;32;33069;-62
2021/05/15 08:44:01;;;;;;;5.43;1.50;;;;;;;23.76;40.72;99140.56;4469248;32;34689;-61
2021/05/15 08:46:27;;;;;;;6.82;1.40;;;;;;;23.76;40.83;99134.31;4469236;32;33806;-62
2021/05/15 08:48:58;;;;;;;3.60;1.20;;;;;;;23.77;40.68;99130.50;4455663;32;33975;-62
2021/05/15 08:51:24;;;;;;;5.43;1.90;;;;;;;23.77;40.54;99127.78;4471116;32;33560;-62
2021/05/15 08:53:51;;;;;;;3.75;1.23;;;;;;;23.77;40.38;99128.59;4479923;32;33752;-62
2021/05/15 08:56:17;;;;;;;4.40;1.67;;;;;;;23.78;40.53;99121.25;4469289;32;33790;-61
2021/05/15 08:58:44;;;;;;;2.65;1.20;;;;;;;23.74;40.56;99125.56;4479665;32;32898;-61
2021/05/15 09:01:11;;;;;;;3.87;1.60;;;;;;;23.74;40.62;99123.66;4485253;32;34109;-61
2021/05/15 09:03:38;;;;;;;3.28;1.48;;;;;;;23.71;40.21;99118.69;4485042;32;33854;-61
2021/05/15 09:06:06;;;;;;;4.12;1.30;;;;;;;23.74;40.22;99120.12;4484938;32;34517;-62
2021/05/15 09:08:33;;;;;;;4.85;1.42;;;;;;;23.76;40.51;99117.97;4484474;32;34749;-61
2021/05/15 09:11:01;;;;;;;3.28;1.52;;;;;;;23.75;40.25;99108.16;4473799;32;33573;-62
2021/05/15 09:13:29;;;;;;;5.68;1.55;;;;;;;23.72;40.05;99116.78;4469286;32;34692;-62
2021/05/15 09:15:59;;;;;;;4.03;1.45;;;;;;;23.70;40.10;99117.06;4468887;32;34697;-62
2021/05/15 09:18:33;;;;;;;2.92;1.25;;;;;;;23.71;40.41;99120.59;4467886;32;33732;-62
2021/05/15 09:21:03;;;;;;;4.40;1.60;;;;;;;23.71;40.04;99115.97;4469064;32;33122;-61
2021/05/15 09:23:36;;;;;;;4.85;1.70;;;;;;;23.71;40.09;99110.53;4469028;32;35268;-62
2021/05/15 09:26:14;;;;;;;4.12;1.37;;;;;;;23.73;40.20;99115.72;4469283;32;33863;-62
2021/05/15 09:28:46;;;;;;;3.83;1.42;;;;;;;23.73;40.29;99104.81;4469050;32;33456;-62
2021/05/15 09:31:13;;;;;;;5.18;1.45;;;;;;;23.73;40.33;99110.28;4468312;32;33389;-62
2021/05/15 09:33:46;;;;;;;4.72;1.55;;;;;;;23.74;40.52;99101.87;4468849;32;33695;-61
2021/05/15 09:36:28;;;;;;;4.50;1.55;;;;;;;23.73;40.50;99110.28;4468760;32;34558;-62
2021/05/15 09:39:19;;;;;;;6.70;1.60;;;;;;;23.74;40.39;99111.94;4469272;32;34627;-62
2021/05/15 09:41:58;;;;;;;4.85;1.35;;;;;;;23.76;40.15;99110.63;4468876;32;34305;-62
2021/05/15 09:44:27;;;;;;;7.82;1.55;;;;;;;23.71;40.06;99105.06;4469229;32;34619;-62
2021/05/15 09:46:56;;;;;;;4.22;1.30;;;;;;;23.67;39.70;99104.72;4475921;32;34769;-62
2021/05/15 09:49:36;;;;;;;4.72;1.52;;;;;;;23.68;39.71;99109.09;4484701;32;33498;-62
2021/05/15 09:52:07;;;;;;;3.95;1.70;;;;;;;23.70;39.85;99110.78;4484506;32;33233;-62
2021/05/15 09:54:36;;;;;;;2.83;1.40;;;;;;;23.69;39.43;99107.22;4484859;32;33466;-62
2021/05/15 09:57:06;;;;;;;2.62;1.42;;;;;;;23.71;39.67;99101.53;4484659;32;33791;-62
2021/05/15 09:59:36;;;;;;;4.32;1.58;;;;;;;23.68;39.95;99114.56;4484390;32;34998;-61
2021/05/15 10:02:14;;;;;;;3.40;1.33;;;;;;;23.68;39.88;99102.84;4484375;32;33519;-62
2021/05/15 10:04:43;;;;;;;4.40;1.30;;;;;;;23.71;39.57;99101.53;4484219;32;33776;-62
2021/05/15 10:07:23;;;;;;;7.12;1.70;;;;;;;23.70;39.66;99103.44;4484326;32;33806;-62
2021/05/15 10:09:52;;;;;;;4.00;1.50;;;;;;;23.71;39.78;99101.53;4484448;32;33841;-62
2021/05/15 10:12:20;;;;;;;3.00;1.50;;;;;;;23.70;40.13;99106.16;4484735;32;34115;-62
2021/05/15 10:14:49;;;;;;;3.78;1.48;;;;;;;23.70;40.15;99099.88;4484773;32;33706;-62
2021/05/15 10:17:22;;;;;;;3.50;1.42;;;;;;;23.67;40.16;99099.28;4484583;32;34692;-62
2021/05/15 10:19:52;;;;;;;3.08;1.40;;;;;;;23.67;40.16;99099.28;4483118;32;33529;-62
2021/05/15 10:22:21;;;;;;;2.83;1.30;;;;;;;23.68;39.99;99102.84;4457441;32;34063;-63
2021/05/15 10:24:50;;;;;;;;;;;;;;;23.66;40.05;99094.91;4469023;32;33820;-62
2021/05/15 10:27:18;;;;;;;3.00;1.30;;;;;;;23.77;39.99;99092.38;4468921;32;34999;-62
2021/05/15 10:29:49;;;;;;;5.60;1.35;;;;;;;23.70;40.00;99095.25;4468724;32;34549;-62
2021/05/15 10:32:30;;;;;;;7.47;1.83;;;;;;;23.66;39.82;99094.09;4468841;32;33278;-61
2021/05/15 10:35:01;;;;;;;7.85;2.30;;;;;;;23.64;39.85;99094.34;4468396;32;33780;-61
2021/05/15 10:37:34;;;;;;;2.95;1.50;;;;;;;23.64;40.00;99093.50;4474833;32;33824;-62
2021/05/15 10:40:18;;;;;;;2.35;1.45;;;;;;;23.64;40.14;99099.78;4484514;32;33834;-61
2021/05/15 10:42:58;;;;;;;4.43;1.52;;;;;;;23.66;40.07;99080.47;4483240;32;33019;-63
2021/05/15 10:45:44;;;;;;;6.03;2.15;;;;;;;23.68;40.13;99086.50;4484432;32;33894;-62
2021/05/15 10:48:29;;;;;;;5.90;1.60;;;;;;;23.66;40.12;99089.47;4484647;32;33726;-62
2021/05/15 10:51:00;;;;;;;4.50;1.77;;;;;;;23.66;40.21;99083.19;4483845;32;34956;-61
2021/05/15 10:53:32;;;;;;;3.72;1.95;;;;;;;23.67;39.87;99082.12;4484154;32;33452;-62
2021/05/15 10:56:18;;;;;;;3.78;1.52;;;;;;;23.65;39.43;99070.66;4483870;32;34769;-61
2021/05/15 10:58:47;;;;;;;5.87;2.12;;;;;;;23.68;39.90;99081.03;4484072;32;33856;-61
2021/05/15 11:01:24;;;;;;;5.40;2.50;;;;;;;23.65;39.83;99076.94;4483782;32;33790;-61
2021/05/15 11:03:52;;;;;;;6.12;2.58;;;;;;;23.67;39.70;99068.50;4484049;32;34030;-62
2021/05/15 11:06:23;;;;;;;4.40;1.83;;;;;;;23.65;39.58;99073.38;4483984;32;33961;-62
2021/05/15 11:09:05;;;;;;;5.15;1.98;;;;;;;23.63;39.79;99068.12;4483801;32;33822;-61
2021/05/15 11:11:39;;;;;;;11.38;3.97;;;;;;;23.66;39.87;99064.13;4483706;32;34267;-63
2021/05/15 11:14:33;;;;;;;7.62;2.60;;;;;;;23.66;39.34;99061.41;4476927;32;33780;-61
2021/05/15 11:17:04;;;;;;;7.72;2.50;;;;;;;23.68;39.54;99057.34;4480308;32;34379;-61
2021/05/15 11:19:34;;;;;;;12.30;3.37;;;;;;;23.67;39.46;99046.72;4483122;32;33973;-62
2021/05/15 11:22:02;;;;;;;5.40;2.42;;;;;;;23.66;39.45;99051.34;4478201;32;33868;-62
2021/05/15 11:24:34;;;;;;;9.63;2.60;;;;;;;23.66;39.23;99048.63;4477064;32;33626;-61
2021/05/15 11:27:15;;;;;;;5.82;2.50;;;;;;;23.67;39.24;99049.44;4483463;32;33733;-62
2021/05/15 11:29:42;;;;;;;8.65;2.90;;;;;;;23.71;39.47;99047.87;4483970;32;34784;-62
2021/05/15 11:32:12;;;;;;;4.32;2.20;;;;;;;23.71;39.31;99036.16;4483313;32;33927;-62
2021/05/15 11:34:40;;;;;;;5.35;2.55;;;;;;;23.70;38.99;99038.06;4473522;32;34131;-62
2021/05/15 11:37:09;;;;;;;5.97;2.40;;;;;;;23.72;38.72;99040.53;4473349;32;35405;-62
2021/05/15 11:39:37;;;;;;;5.03;2.22;;;;;;;23.72;38.73;99038.63;4483580;32;34719;-62
2021/05/15 11:42:06;;;;;;;8.13;2.20;;;;;;;23.72;38.71;99035.91;4482778;32;34804;-62
2021/05/15 11:44:33;;;;;;;5.60;1.90;;;;;;;23.73;38.56;99034.81;4482368;32;33318;-62